createdAt,value
2018-12-18T00:01:58.867Z,18.60
2018-12-18T00:04:27.182Z,16.50
2018-12-18T00:06:55.420Z,18.73
2018-12-18T00:09:23.651Z,15.43
2018-12-18T00:11:51.897Z,21.77
2018-12-18T00:14:20.142Z,21.90
2018-12-18T00:16:48.406Z,17.43
2018-12-18T00:19:16.635Z,17.53
2018-12-18T00:21:45.312Z,22.17
2018-12-18T00:24:13.631Z,23.00
2018-12-18T00:26:41.885Z,21.30
2018-12-18T00:29:10.125Z,23.20
2018-12-18T00:31:38.362Z,19.27
2018-12-18T00:34:06.604Z,28.07
2018-12-18T00:36:34.910Z,25.20
2018-12-18T00:39:03.322Z,19.50
2018-12-18T00:41:31.686Z,21.93
2018-12-18T00:43:59.942Z,24.87
2018-12-18T00:46:28.203Z,28.10
2018-12-18T00:48:56.392Z,25.53
2018-12-18T00:51:24.663Z,24.43
2018-12-18T00:53:52.975Z,28.73
2018-12-18T00:56:21.255Z,37.73
2018-12-18T00:58:49.551Z,30.30
2018-12-18T01:01:17.861Z,28.13
2018-12-18T01:03:52.594Z,37.30
2018-12-18T01:06:16.443Z,35.17
2018-12-18T01:08:44.766Z,40.43
2018-12-18T01:11:12.997Z,38.30
2018-12-18T01:13:41.414Z,39.30
2018-12-18T01:16:09.662Z,38.40
2018-12-18T01:18:37.903Z,45.47
2018-12-18T01:21:06.147Z,36.27
2018-12-18T01:23:34.462Z,44.27
2018-12-18T01:26:02.738Z,45.00
2018-12-18T01:28:30.966Z,50.93
2018-12-18T01:30:59.205Z,48.57
2018-12-18T01:33:27.484Z,46.07
2018-12-18T01:35:55.722Z,46.40
2018-12-18T01:38:23.973Z,49.97
2018-12-18T01:40:52.264Z,46.40
2018-12-18T01:43:20.524Z,54.50
2018-12-18T01:45:48.746Z,50.73
2018-12-18T01:48:16.988Z,52.60
2018-12-18T01:50:45.232Z,56.00
2018-12-18T01:53:13.496Z,53.30
2018-12-18T01:55:41.797Z,51.60
2018-12-18T01:58:10.025Z,48.37
2018-12-18T02:00:38.259Z,57.30
2018-12-18T02:03:06.562Z,60.07
2018-12-18T02:05:34.816Z,63.20
2018-12-18T02:08:03.113Z,55.20
2018-12-18T02:10:31.334Z,59.93
2018-12-18T02:12:59.646Z,50.80
2018-12-18T02:15:27.915Z,50.90
2018-12-18T02:17:56.134Z,56.03
2018-12-18T02:20:24.623Z,53.60
2018-12-18T02:22:52.835Z,58.10
2018-12-18T02:25:21.085Z,54.30
2018-12-18T02:27:49.306Z,61.03
2018-12-18T02:30:17.541Z,60.73
2018-12-18T02:32:45.755Z,50.67
2018-12-18T02:35:14.008Z,51.43
2018-12-18T02:37:42.318Z,55.50
2018-12-18T02:40:10.605Z,56.10
2018-12-18T02:42:38.955Z,51.93
2018-12-18T02:45:08.558Z,56.43
2018-12-18T02:47:36.813Z,51.30
2018-12-18T02:50:05.535Z,55.17
2018-12-18T02:52:33.749Z,57.13
2018-12-18T02:55:02.035Z,54.40
2018-12-18T02:57:30.235Z,62.73
2018-12-18T02:59:58.499Z,57.63
2018-12-18T03:02:26.719Z,53.33
2018-12-18T03:04:54.950Z,55.93
2018-12-18T03:07:23.196Z,57.07
2018-12-18T03:09:51.444Z,61.00
2018-12-18T03:12:19.843Z,56.57
2018-12-18T03:14:48.127Z,53.57
2018-12-18T03:17:16.360Z,60.13
2018-12-18T03:19:44.572Z,50.70
2018-12-18T03:22:12.880Z,51.17
2018-12-18T03:24:41.161Z,55.50
2018-12-18T03:27:09.369Z,54.20
2018-12-18T03:29:37.601Z,56.00
2018-12-18T03:32:11.467Z,59.07
2018-12-18T03:34:39.783Z,49.40
2018-12-18T03:37:07.987Z,52.47
2018-12-18T03:39:36.197Z,50.00
2018-12-18T03:42:04.439Z,49.83
2018-12-18T03:44:32.665Z,56.57
2018-12-18T03:47:01.025Z,51.43
2018-12-18T03:49:29.267Z,49.10
2018-12-18T03:51:57.548Z,59.50
2018-12-18T03:54:25.776Z,47.87
2018-12-18T03:56:53.977Z,60.63
2018-12-18T03:59:22.205Z,64.37
2018-12-18T04:01:50.485Z,54.77
2018-12-18T04:04:18.698Z,58.27
2018-12-18T04:06:46.930Z,56.53
2018-12-18T04:09:29.768Z,53.43
2018-12-18T04:12:32.694Z,53.70
2018-12-18T04:15:01.022Z,49.03
2018-12-18T04:17:29.294Z,57.23
2018-12-18T04:19:57.519Z,49.80
2018-12-18T04:22:25.759Z,55.50
2018-12-18T04:24:53.987Z,43.83
2018-12-18T04:27:22.199Z,56.47
2018-12-18T04:29:50.410Z,50.63
2018-12-18T04:32:18.657Z,42.67
2018-12-18T04:34:46.912Z,48.37
2018-12-18T04:37:15.132Z,45.60
2018-12-18T04:39:43.350Z,52.63
2018-12-18T04:42:11.559Z,48.60
2018-12-18T04:44:39.818Z,57.13
2018-12-18T04:47:08.110Z,46.33
2018-12-18T04:49:36.330Z,50.00
2018-12-18T04:52:04.646Z,46.57
2018-12-18T04:54:32.868Z,41.17
2018-12-18T04:57:07.586Z,47.83
2018-12-18T04:59:38.893Z,47.63
2018-12-18T05:02:07.302Z,43.53
2018-12-18T05:04:35.618Z,43.90
2018-12-18T05:07:04.265Z,39.20
2018-12-18T05:09:32.519Z,39.23
2018-12-18T05:12:00.747Z,39.93
2018-12-18T05:14:29.136Z,37.13
2018-12-18T05:16:57.351Z,45.90
2018-12-18T05:19:25.632Z,35.57
2018-12-18T05:21:53.843Z,46.87
2018-12-18T05:24:22.075Z,43.87
2018-12-18T05:26:50.346Z,41.97
2018-12-18T05:29:18.566Z,43.30
2018-12-18T05:31:46.801Z,35.90
2018-12-18T05:34:15.011Z,45.93
2018-12-18T05:36:43.251Z,38.10
2018-12-18T05:39:11.479Z,45.97
2018-12-18T05:41:39.871Z,40.43
2018-12-18T05:44:08.085Z,38.60
2018-12-18T05:46:36.318Z,39.70
2018-12-18T05:49:04.546Z,35.77
2018-12-18T05:51:32.751Z,44.77
2018-12-18T05:54:01.014Z,44.73
2018-12-18T05:56:29.225Z,45.03
2018-12-18T05:58:57.458Z,42.63
2018-12-18T06:01:25.743Z,37.37
2018-12-18T06:03:53.957Z,37.20
2018-12-18T06:06:22.183Z,37.97
2018-12-18T06:08:50.406Z,35.00
2018-12-18T06:11:18.625Z,38.00
2018-12-18T06:13:46.831Z,34.50
2018-12-18T06:16:15.029Z,37.40
2018-12-18T06:18:43.246Z,34.47
2018-12-18T06:21:11.463Z,39.30
2018-12-18T06:23:39.705Z,39.57
2018-12-18T06:26:07.919Z,37.70
2018-12-18T06:28:36.138Z,45.53
2018-12-18T06:31:04.461Z,32.40
2018-12-18T06:33:32.694Z,32.53
2018-12-18T06:36:01.049Z,45.30
2018-12-18T06:38:29.274Z,29.93
2018-12-18T06:40:57.542Z,33.30
2018-12-18T06:43:25.829Z,34.43
2018-12-18T06:45:54.067Z,34.57
2018-12-18T06:48:22.286Z,31.30
2018-12-18T06:50:50.585Z,35.00
2018-12-18T06:53:18.830Z,29.30
2018-12-18T06:55:47.081Z,39.83
2018-12-18T06:58:15.356Z,35.33
2018-12-18T07:00:43.654Z,34.50
2018-12-18T07:03:11.927Z,32.23
2018-12-18T07:05:40.170Z,41.23
2018-12-18T07:08:08.544Z,31.20
2018-12-18T07:10:36.789Z,30.00
2018-12-18T07:13:05.173Z,42.00
2018-12-18T07:15:33.539Z,33.20
2018-12-18T07:18:01.766Z,40.30
2018-12-18T07:20:29.977Z,40.57
2018-12-18T07:22:58.207Z,25.47
2018-12-18T07:25:26.589Z,29.87
2018-12-18T07:27:54.802Z,32.87
2018-12-18T07:30:23.101Z,33.07
2018-12-18T07:32:51.392Z,29.60
2018-12-18T07:35:23.309Z,38.60
2018-12-18T07:37:50.018Z,31.90
2018-12-18T07:40:18.459Z,29.80
2018-12-18T07:42:46.694Z,37.13
2018-12-18T07:45:14.910Z,33.27
2018-12-18T07:47:43.135Z,26.57
2018-12-18T07:50:11.521Z,27.03
2018-12-18T07:52:39.758Z,28.30
2018-12-18T07:55:07.976Z,25.50
2018-12-18T07:57:36.223Z,30.30
2018-12-18T08:00:04.856Z,28.53
2018-12-18T08:02:33.553Z,29.07
2018-12-18T08:05:01.783Z,22.30
2018-12-18T08:07:30.012Z,22.60
2018-12-18T08:09:58.340Z,30.07
2018-12-18T08:12:26.563Z,33.23
2018-12-18T08:14:54.795Z,33.57
2018-12-18T08:17:23.026Z,36.17
2018-12-18T08:19:51.250Z,25.20
2018-12-18T08:22:19.541Z,29.23
2018-12-18T08:24:47.842Z,24.20
2018-12-18T08:27:16.092Z,31.07
2018-12-18T08:29:44.303Z,34.40
2018-12-18T08:32:12.537Z,28.50
2018-12-18T08:34:40.779Z,25.93
2018-12-18T08:37:09.078Z,23.60
2018-12-18T08:39:37.327Z,33.80
2018-12-18T08:42:05.555Z,19.63
2018-12-18T08:44:33.795Z,22.90
2018-12-18T08:47:02.063Z,20.80
2018-12-18T08:49:30.286Z,23.17
2018-12-18T08:51:58.522Z,19.93
2018-12-18T08:54:26.793Z,23.20
2018-12-18T08:56:55.152Z,25.50
2018-12-18T08:59:23.390Z,19.87
2018-12-18T09:01:51.774Z,22.50
2018-12-18T09:04:20.096Z,20.80
2018-12-18T09:06:48.390Z,24.50
2018-12-18T09:09:16.613Z,19.90
2018-12-18T09:11:44.858Z,16.40
2018-12-18T09:14:13.518Z,17.03
2018-12-18T09:16:47.478Z,21.40
2018-12-18T09:19:15.693Z,17.90
2018-12-18T09:21:43.974Z,15.20
2018-12-18T09:24:12.304Z,11.60
2018-12-18T09:26:40.630Z,17.20
2018-12-18T09:29:08.845Z,19.37
2018-12-18T09:31:37.073Z,16.13
2018-12-18T09:34:05.308Z,19.30
2018-12-18T09:36:33.534Z,20.10
2018-12-18T09:39:24.279Z,15.07
2018-12-18T09:41:56.834Z,22.67
2018-12-18T09:44:25.322Z,15.57
2018-12-18T09:46:53.529Z,17.17
2018-12-18T09:49:21.742Z,20.20
2018-12-18T09:51:49.958Z,14.23
2018-12-18T09:54:18.187Z,13.70
2018-12-18T09:56:50.378Z,21.90
2018-12-18T09:59:18.757Z,19.50
2018-12-18T10:01:47.151Z,16.70
2018-12-18T10:04:15.402Z,16.90
2018-12-18T10:06:45.047Z,13.17
2018-12-18T10:09:13.727Z,18.57
2018-12-18T10:11:42.202Z,18.47
2018-12-18T10:14:10.490Z,16.33
2018-12-18T10:16:38.731Z,17.47
2018-12-18T10:19:13.510Z,13.77
2018-12-18T10:21:41.887Z,12.53
2018-12-18T10:24:10.121Z,18.80
2018-12-18T10:26:38.356Z,20.43
2018-12-18T10:29:06.642Z,14.10
2018-12-18T10:31:34.959Z,14.43
2018-12-18T10:34:03.216Z,21.77
2018-12-18T10:36:31.459Z,22.63
2018-12-18T10:38:59.699Z,15.43
2018-12-18T10:41:28.026Z,14.50
2018-12-18T10:43:56.241Z,16.13
2018-12-18T10:46:24.614Z,19.30
2018-12-18T10:48:52.895Z,14.27
2018-12-18T10:51:21.126Z,15.53
2018-12-18T10:53:49.379Z,14.80
2018-12-18T10:56:17.603Z,15.83
2018-12-18T10:58:45.913Z,16.57
2018-12-18T11:01:18.375Z,16.43
2018-12-18T11:03:46.701Z,10.80
2018-12-18T11:06:15.071Z,19.00
2018-12-18T11:08:43.306Z,16.07
2018-12-18T11:11:11.543Z,16.00
2018-12-18T11:13:39.774Z,13.53
2018-12-18T11:16:08.030Z,13.23
2018-12-18T11:18:36.322Z,18.10
2018-12-18T11:21:04.863Z,13.60
2018-12-18T11:23:33.057Z,11.77
2018-12-18T11:26:01.273Z,16.00
2018-12-18T11:28:29.613Z,14.13
2018-12-18T11:30:57.867Z,13.27
2018-12-18T11:33:41.189Z,16.37
2018-12-18T11:36:09.502Z,14.27
2018-12-18T11:38:37.763Z,15.80
2018-12-18T11:41:06.217Z,17.67
2018-12-18T11:43:34.458Z,21.30
2018-12-18T11:46:02.793Z,12.90
2018-12-18T11:48:31.034Z,12.20
2018-12-18T11:50:59.366Z,16.67
2018-12-18T11:53:27.625Z,19.50
2018-12-18T11:55:55.924Z,10.67
2018-12-18T11:58:24.174Z,14.40
2018-12-18T12:00:52.462Z,11.63
2018-12-18T12:03:20.853Z,14.73
2018-12-18T12:05:49.072Z,9.07
2018-12-18T12:08:17.281Z,13.83
2018-12-18T12:10:45.497Z,13.03
2018-12-18T12:13:13.711Z,14.90
2018-12-18T12:15:41.940Z,9.00
2018-12-18T12:18:10.166Z,9.20
2018-12-18T12:20:38.388Z,18.60
2018-12-18T12:23:06.686Z,9.43
2018-12-18T12:25:34.938Z,11.57
2018-12-18T12:28:05.587Z,17.70
2018-12-18T12:30:34.898Z,6.90
2018-12-18T12:33:03.230Z,13.03
2018-12-18T12:35:31.449Z,12.33
2018-12-18T12:37:59.670Z,8.93
2018-12-18T12:40:27.917Z,14.27
2018-12-18T12:42:56.150Z,11.47
2018-12-18T12:45:24.460Z,10.63
2018-12-18T12:47:53.710Z,9.37
2018-12-18T12:50:22.002Z,13.93
2018-12-18T12:52:50.230Z,9.10
2018-12-18T12:55:18.632Z,8.70
2018-12-18T12:57:46.867Z,8.03
2018-12-18T13:00:15.099Z,9.60
2018-12-18T13:02:43.399Z,6.03
2018-12-18T13:05:11.736Z,13.60
2018-12-18T13:07:39.955Z,10.33
2018-12-18T13:10:08.334Z,5.83
2018-12-18T13:12:36.660Z,7.03
2018-12-18T13:15:05.537Z,10.50
2018-12-18T13:17:33.826Z,7.20
2018-12-18T13:20:02.138Z,9.50
2018-12-18T13:22:30.446Z,7.77
2018-12-18T13:24:58.673Z,7.07
2018-12-18T13:27:26.881Z,6.97
2018-12-18T13:29:55.609Z,11.53
2018-12-18T13:32:23.942Z,13.80
2018-12-18T13:34:52.253Z,11.10
2018-12-18T13:37:20.515Z,8.83
2018-12-18T13:39:48.723Z,11.63
2018-12-18T13:42:16.958Z,7.87
2018-12-18T13:44:45.173Z,7.67
2018-12-18T13:47:13.406Z,6.30
2018-12-18T13:49:41.652Z,9.37
2018-12-18T13:52:09.979Z,8.30
2018-12-18T13:54:38.194Z,7.40
2018-12-18T13:57:06.486Z,12.50
2018-12-18T13:59:34.793Z,8.10
2018-12-18T14:02:04.073Z,25.93
2018-12-18T14:04:32.311Z,11.90
2018-12-18T14:07:00.558Z,10.37
2018-12-18T14:09:28.803Z,8.53
2018-12-18T14:11:57.010Z,8.10
2018-12-18T14:14:25.243Z,6.47
2018-12-18T14:16:53.469Z,5.90
2018-12-18T14:19:21.735Z,5.03
2018-12-18T14:21:49.945Z,9.30
2018-12-18T14:24:18.198Z,7.93
2018-12-18T14:26:46.418Z,6.67
2018-12-18T14:29:14.661Z,5.77
2018-12-18T14:31:42.911Z,6.80
2018-12-18T14:34:11.176Z,6.67
2018-12-18T14:36:39.471Z,7.23
2018-12-18T14:39:07.807Z,13.43
2018-12-18T14:41:36.010Z,6.40
2018-12-18T14:44:04.307Z,6.80
2018-12-18T14:46:32.642Z,11.70
2018-12-18T14:49:00.909Z,9.87
2018-12-18T14:51:29.186Z,6.93
2018-12-18T14:53:57.408Z,10.67
2018-12-18T14:56:25.631Z,5.70
2018-12-18T14:58:53.856Z,6.63
2018-12-18T15:01:22.098Z,8.17
2018-12-18T15:03:50.403Z,8.27
2018-12-18T15:06:18.665Z,6.57
2018-12-18T15:08:46.918Z,4.00
2018-12-18T15:11:15.157Z,5.17
2018-12-18T15:13:43.376Z,14.17
2018-12-18T15:16:11.632Z,5.40
2018-12-18T15:18:39.938Z,6.63
2018-12-18T15:21:09.137Z,7.17
2018-12-18T15:23:37.384Z,6.03
2018-12-18T15:26:05.811Z,12.93
2018-12-18T15:28:34.106Z,7.70
2018-12-18T15:31:02.337Z,4.00
2018-12-18T15:33:30.630Z,8.57
2018-12-18T15:35:58.931Z,4.43
2018-12-18T15:38:27.234Z,7.07
2018-12-18T15:40:55.634Z,6.47
2018-12-18T15:43:23.947Z,11.37
2018-12-18T15:45:52.402Z,6.33
2018-12-18T15:48:20.638Z,8.23
2018-12-18T15:50:48.858Z,6.30
2018-12-18T15:53:17.190Z,11.90
2018-12-18T15:55:45.547Z,11.03
2018-12-18T15:58:13.899Z,8.30
2018-12-18T16:00:42.100Z,5.37
2018-12-18T16:03:10.342Z,11.90
2018-12-18T16:05:38.619Z,7.93
2018-12-18T16:08:06.874Z,8.13
2018-12-18T16:10:35.097Z,7.40
2018-12-18T16:13:03.402Z,6.20
2018-12-18T16:15:31.698Z,7.60
2018-12-18T16:17:59.930Z,3.97
2018-12-18T16:20:28.142Z,7.30
2018-12-18T16:22:56.385Z,4.20
2018-12-18T16:25:24.605Z,12.20
2018-12-18T16:27:52.903Z,4.07
2018-12-18T16:30:21.119Z,9.87
2018-12-18T16:32:49.325Z,9.30
2018-12-18T16:35:17.573Z,15.20
2018-12-18T16:37:45.795Z,6.10
2018-12-18T16:40:14.008Z,7.23
2018-12-18T16:42:42.250Z,5.13
2018-12-18T16:45:10.470Z,12.67
2018-12-18T16:47:38.728Z,5.73
2018-12-18T16:50:07.130Z,5.10
2018-12-18T16:52:35.358Z,17.70
2018-12-18T16:55:03.755Z,10.43
2018-12-18T16:57:31.979Z,8.17
2018-12-18T17:00:00.352Z,13.10
2018-12-18T17:02:28.603Z,9.60
2018-12-18T17:04:56.853Z,7.63
2018-12-18T17:07:29.565Z,13.67
2018-12-18T17:09:55.399Z,8.13
2018-12-18T17:12:23.658Z,9.07
2018-12-18T17:14:52.021Z,8.57
2018-12-18T17:17:20.258Z,6.00
2018-12-18T17:19:48.498Z,9.97
2018-12-18T17:22:16.730Z,11.00
2018-12-18T17:24:44.969Z,9.00
2018-12-18T17:27:13.254Z,11.77
2018-12-18T17:29:41.516Z,5.90
2018-12-18T17:32:09.864Z,9.70
2018-12-18T17:34:38.090Z,8.03
2018-12-18T17:37:06.713Z,9.50
2018-12-18T17:39:34.942Z,8.23
2018-12-18T17:42:03.159Z,22.03
2018-12-18T17:44:31.535Z,8.57
2018-12-18T17:46:59.753Z,8.40
2018-12-18T17:49:28.022Z,10.93
2018-12-18T17:51:56.299Z,9.73
2018-12-18T17:54:24.609Z,10.03
2018-12-18T17:56:53.049Z,9.47
2018-12-18T17:59:21.303Z,8.43
2018-12-18T18:01:49.646Z,7.17
2018-12-18T18:04:18.022Z,11.43
2018-12-18T18:06:46.250Z,8.10
2018-12-18T18:09:14.487Z,14.50
2018-12-18T18:11:42.753Z,11.13
2018-12-18T18:14:11.030Z,7.60
2018-12-18T18:16:48.762Z,8.00
2018-12-18T18:19:17.289Z,9.13
2018-12-18T18:21:45.552Z,11.63
2018-12-18T18:24:13.894Z,7.80
2018-12-18T18:26:42.148Z,8.63
2018-12-18T18:29:11.516Z,7.80
2018-12-18T18:31:39.739Z,9.90
2018-12-18T18:34:08.148Z,9.90
2018-12-18T18:36:36.401Z,12.43
2018-12-18T18:39:07.448Z,8.23
2018-12-18T18:41:35.861Z,7.70
2018-12-18T18:44:04.644Z,7.47
2018-12-18T18:46:32.944Z,8.90
2018-12-18T18:49:01.208Z,7.93
2018-12-18T18:51:29.553Z,10.00
2018-12-18T18:53:57.847Z,11.73
2018-12-18T18:56:27.249Z,9.67
2018-12-18T18:58:56.574Z,8.23
2018-12-18T19:01:25.711Z,7.93
2018-12-18T19:03:54.266Z,13.13
2018-12-18T19:06:22.545Z,7.10
2018-12-18T19:08:50.896Z,8.37
2018-12-18T19:11:19.157Z,7.07
2018-12-18T19:13:47.464Z,10.47
2018-12-18T19:16:30.443Z,11.10
2018-12-18T19:18:58.841Z,8.70
2018-12-18T19:21:27.378Z,8.77
2018-12-18T19:23:55.655Z,20.43
2018-12-18T19:26:24.589Z,7.17
2018-12-18T19:28:52.934Z,8.50
2018-12-18T19:31:21.205Z,12.40
2018-12-18T19:33:49.479Z,9.33
2018-12-18T19:36:17.773Z,8.53
2018-12-18T19:38:46.063Z,7.77
2018-12-18T19:41:14.327Z,7.97
2018-12-18T19:43:42.595Z,6.00
2018-12-18T19:46:10.899Z,7.97
2018-12-18T19:48:39.653Z,9.03
2018-12-18T19:51:07.950Z,7.40
2018-12-18T19:53:36.305Z,6.77
2018-12-18T19:56:04.950Z,10.93
2018-12-18T19:58:47.976Z,9.40
2018-12-18T20:01:16.216Z,6.33
2018-12-18T20:03:44.509Z,6.20
2018-12-18T20:06:12.811Z,10.43
2018-12-18T20:08:41.065Z,8.30
2018-12-18T20:11:09.818Z,10.40
2018-12-18T20:13:38.585Z,7.07
2018-12-18T20:16:06.863Z,6.40
2018-12-18T20:18:35.185Z,9.43
2018-12-18T20:21:03.957Z,6.70
2018-12-18T20:23:32.334Z,7.70
2018-12-18T20:26:00.801Z,11.10
2018-12-18T20:28:29.726Z,9.97
2018-12-18T20:30:57.962Z,6.40
2018-12-18T20:33:26.479Z,8.17
2018-12-18T20:35:54.711Z,4.37
2018-12-18T20:38:22.987Z,6.40
2018-12-18T20:40:51.338Z,4.57
2018-12-18T20:43:19.618Z,5.97
2018-12-18T20:45:48.663Z,5.83
2018-12-18T20:48:16.917Z,7.67
2018-12-18T20:50:45.257Z,5.37
2018-12-18T20:53:13.570Z,6.77
2018-12-18T20:58:16.673Z,6.00
2018-12-18T21:00:45.071Z,4.77
2018-12-18T21:03:13.586Z,7.60
2018-12-18T21:05:41.849Z,6.90
2018-12-18T21:08:11.283Z,5.67
2018-12-18T21:10:39.570Z,5.87
2018-12-18T21:13:13.368Z,5.60
2018-12-18T21:15:41.635Z,5.97
2018-12-18T21:18:09.902Z,5.83
2018-12-18T21:20:38.391Z,6.83
2018-12-18T21:23:06.625Z,5.10
2018-12-18T21:25:35.812Z,9.13
2018-12-18T21:28:04.204Z,5.67
2018-12-18T21:30:32.458Z,11.47
2018-12-18T21:33:00.730Z,5.73
2018-12-18T21:35:29.321Z,5.73
2018-12-18T21:37:58.602Z,7.67
2018-12-18T21:40:26.931Z,5.77
2018-12-18T21:42:55.192Z,7.57
2018-12-18T21:45:23.418Z,6.37
2018-12-18T21:47:51.725Z,4.47
2018-12-18T21:50:19.958Z,5.37
2018-12-18T21:52:48.200Z,5.47
2018-12-18T21:55:16.510Z,6.13
2018-12-18T21:57:44.782Z,3.93
2018-12-18T22:00:13.522Z,7.90
2018-12-18T22:02:41.767Z,5.50
2018-12-18T22:05:10.109Z,6.00
2018-12-18T22:07:38.365Z,4.10
2018-12-18T22:10:08.108Z,5.47
2018-12-18T22:12:36.523Z,5.10
2018-12-18T22:15:05.769Z,6.67
2018-12-18T22:17:34.043Z,4.20
2018-12-18T22:20:02.360Z,4.70
2018-12-18T22:22:30.597Z,4.80
2018-12-18T22:24:58.853Z,9.70
2018-12-18T22:27:27.714Z,11.60
2018-12-18T22:29:55.949Z,6.07
2018-12-18T22:32:24.574Z,7.30
2018-12-18T22:34:52.847Z,4.73
2018-12-18T22:37:21.176Z,4.40
2018-12-18T22:39:49.423Z,5.53
2018-12-18T22:42:17.639Z,7.43
2018-12-18T22:44:45.882Z,5.77
2018-12-18T22:47:14.981Z,4.73
2018-12-18T22:49:43.209Z,6.57
2018-12-18T22:52:11.552Z,6.30
2018-12-18T22:54:39.782Z,7.10
2018-12-18T22:57:08.023Z,5.37
2018-12-18T22:59:36.388Z,10.67
2018-12-18T23:02:10.104Z,6.47
2018-12-18T23:04:38.907Z,4.20
2018-12-18T23:07:07.153Z,4.27
2018-12-18T23:09:35.398Z,4.30
2018-12-18T23:12:03.917Z,4.10
2018-12-18T23:14:32.231Z,8.33
2018-12-18T23:17:00.479Z,6.20
2018-12-18T23:19:28.927Z,5.30
2018-12-18T23:21:57.375Z,4.47
2018-12-18T23:24:25.599Z,5.30
2018-12-18T23:26:53.854Z,3.90
2018-12-18T23:29:22.077Z,5.20
2018-12-18T23:31:50.290Z,4.13
2018-12-18T23:34:19.462Z,5.30
2018-12-18T23:36:47.703Z,4.70
2018-12-18T23:39:15.922Z,6.40
2018-12-18T23:41:44.217Z,7.97
2018-12-18T23:44:13.090Z,5.73
2018-12-18T23:46:41.332Z,8.23
2018-12-18T23:49:09.668Z,5.33
2018-12-18T23:51:37.929Z,5.63
2018-12-18T23:54:06.177Z,6.40
2018-12-18T23:56:34.452Z,4.53
2018-12-18T23:59:02.733Z,5.17
